createdAt,value
2023-05-21T00:01:08.122Z,12.70
2023-05-21T00:03:36.231Z,12.80
2023-05-21T00:06:06.438Z,12.80
2023-05-21T00:08:34.288Z,12.80
2023-05-21T00:11:05.708Z,12.90
2023-05-21T00:13:32.389Z,12.90
2023-05-21T00:15:59.133Z,12.90
2023-05-21T00:18:25.868Z,12.90
2023-05-21T00:20:53.070Z,12.80
2023-05-21T00:23:19.814Z,12.80
2023-05-21T00:25:46.757Z,12.80
2023-05-21T00:28:16.059Z,12.70
2023-05-21T00:30:45.732Z,12.70
2023-05-21T00:33:13.778Z,12.70
2023-05-21T00:35:42.937Z,12.70
2023-05-21T00:38:14.314Z,12.60
2023-05-21T00:40:43.538Z,12.60
2023-05-21T00:43:14.236Z,12.70
2023-05-21T00:45:47.480Z,12.70
2023-05-21T00:48:14.756Z,12.70
2023-05-21T00:50:41.982Z,12.70
2023-05-21T00:53:09.596Z,12.70
2023-05-21T00:55:40.000Z,12.70
2023-05-21T00:58:11.940Z,12.70
2023-05-21T01:00:40.592Z,12.70
2023-05-21T01:03:10.985Z,12.70
2023-05-21T01:05:45.054Z,12.60
2023-05-21T01:08:16.526Z,12.60
2023-05-21T01:10:45.612Z,12.60
2023-05-21T01:13:12.602Z,12.60
2023-05-21T01:15:41.518Z,12.60
2023-05-21T01:18:09.495Z,12.50
2023-05-21T01:20:37.563Z,12.50
2023-05-21T01:23:05.204Z,12.50
2023-05-21T01:25:34.960Z,12.60
2023-05-21T01:28:01.880Z,12.60
2023-05-21T01:30:31.212Z,12.60
2023-05-21T01:33:04.215Z,12.60
2023-05-21T01:35:35.924Z,12.50
2023-05-21T01:38:31.156Z,12.60
2023-05-21T01:41:06.609Z,12.50
2023-05-21T01:43:39.936Z,12.60
2023-05-21T01:46:10.064Z,12.60
2023-05-21T01:48:37.775Z,12.70
2023-05-21T01:51:06.166Z,12.70
2023-05-21T01:53:32.952Z,12.70
2023-05-21T01:56:00.690Z,12.70
2023-05-21T01:58:29.807Z,12.70
2023-05-21T02:00:58.975Z,12.70
2023-05-21T02:03:30.949Z,12.80
2023-05-21T02:06:00.448Z,12.80
2023-05-21T02:08:27.916Z,12.80
2023-05-21T02:10:54.651Z,12.80
2023-05-21T02:13:25.006Z,12.80
2023-05-21T02:15:54.579Z,12.80
2023-05-21T02:18:21.830Z,12.70
2023-05-21T02:20:50.888Z,12.70
2023-05-21T02:23:17.623Z,12.70
2023-05-21T02:25:44.323Z,12.70
2023-05-21T02:28:14.181Z,12.70
2023-05-21T02:30:45.606Z,12.70
2023-05-21T02:33:15.403Z,12.60
2023-05-21T02:35:42.149Z,12.60
2023-05-21T02:38:09.163Z,12.60
2023-05-21T02:40:35.919Z,12.60
2023-05-21T02:43:02.605Z,12.50
2023-05-21T02:45:30.139Z,12.50
2023-05-21T02:48:01.442Z,12.50
2023-05-21T02:50:30.628Z,12.50
2023-05-21T02:52:57.385Z,12.50
2023-05-21T02:55:24.083Z,12.50
2023-05-21T02:57:52.950Z,12.50
2023-05-21T03:00:21.866Z,12.50
2023-05-21T03:02:48.573Z,12.50
2023-05-21T03:05:17.558Z,12.50
2023-05-21T03:07:44.244Z,12.50
2023-05-21T03:10:13.518Z,12.40
2023-05-21T03:12:40.303Z,12.50
2023-05-21T03:15:09.845Z,12.50
2023-05-21T03:17:36.611Z,12.50
2023-05-21T03:20:05.135Z,12.50
2023-05-21T03:22:31.833Z,12.50
2023-05-21T03:24:58.540Z,12.50
2023-05-21T03:27:27.943Z,12.50
2023-05-21T03:29:55.807Z,12.50
2023-05-21T03:32:25.168Z,12.50
2023-05-21T03:34:51.929Z,12.50
2023-05-21T03:37:18.611Z,12.50
2023-05-21T03:39:47.583Z,12.50
2023-05-21T03:42:16.457Z,12.50
2023-05-21T03:44:43.125Z,12.50
2023-05-21T03:47:12.202Z,12.50
2023-05-21T03:49:38.911Z,12.50
2023-05-21T03:52:08.109Z,12.50
2023-05-21T03:54:37.114Z,12.50
2023-05-21T03:57:03.958Z,12.60
2023-05-21T03:59:32.802Z,12.60
2023-05-21T04:02:00.455Z,12.60
2023-05-21T04:04:29.534Z,12.60
2023-05-21T04:06:56.362Z,12.60
2023-05-21T04:09:23.130Z,12.60
2023-05-21T04:11:52.182Z,12.70
2023-05-21T04:14:23.267Z,12.70
2023-05-21T04:16:50.023Z,12.70
2023-05-21T04:19:16.788Z,12.80
2023-05-21T04:21:46.101Z,12.90
2023-05-21T04:24:14.913Z,12.90
2023-05-21T04:26:44.584Z,12.90
2023-05-21T04:29:11.483Z,13.00
2023-05-21T04:31:42.732Z,13.00
2023-05-21T04:34:17.762Z,13.00
2023-05-21T04:36:47.515Z,13.00
2023-05-21T04:39:17.077Z,13.10
2023-05-21T04:41:44.273Z,13.10
2023-05-21T04:44:10.976Z,13.10
2023-05-21T04:46:41.800Z,13.10
2023-05-21T04:49:11.551Z,13.20
2023-05-21T04:51:38.226Z,13.30
2023-05-21T04:54:04.908Z,13.30
2023-05-21T04:56:31.950Z,13.30
2023-05-21T04:58:58.913Z,13.30
2023-05-21T05:01:32.260Z,13.40
2023-05-21T05:03:59.042Z,13.40
2023-05-21T05:06:28.151Z,13.50
2023-05-21T05:08:54.821Z,13.50
2023-05-21T05:11:23.982Z,13.50
2023-05-21T05:13:50.847Z,13.60
2023-05-21T05:16:25.006Z,13.70
2023-05-21T05:18:57.352Z,13.80
2023-05-21T05:21:24.163Z,13.90
2023-05-21T05:23:53.058Z,13.90
2023-05-21T05:26:22.572Z,14.00
2023-05-21T05:28:49.318Z,14.00
2023-05-21T05:31:16.269Z,14.10
2023-05-21T05:33:43.007Z,14.10
2023-05-21T05:36:11.947Z,14.20
2023-05-21T05:38:38.614Z,14.30
2023-05-21T05:41:05.448Z,14.30
2023-05-21T05:43:36.648Z,14.50
2023-05-21T05:46:03.459Z,14.60
2023-05-21T05:48:32.382Z,14.60
2023-05-21T05:51:01.745Z,14.80
2023-05-21T05:53:28.574Z,14.90
2023-05-21T05:55:55.452Z,15.00
2023-05-21T05:58:22.133Z,15.10
2023-05-21T06:00:48.820Z,15.10
2023-05-21T06:03:15.637Z,15.30
2023-05-21T06:05:44.942Z,15.30
2023-05-21T06:08:14.036Z,15.40
2023-05-21T06:10:40.812Z,15.40
2023-05-21T06:13:07.503Z,15.40
2023-05-21T06:15:36.898Z,15.40
2023-05-21T06:18:06.284Z,15.50
2023-05-21T06:20:35.421Z,15.60
2023-05-21T06:23:02.110Z,15.70
2023-05-21T06:25:28.786Z,15.80
2023-05-21T06:27:57.809Z,15.90
2023-05-21T06:30:24.472Z,15.90
2023-05-21T06:32:53.657Z,15.90
2023-05-21T06:35:20.548Z,16.00
2023-05-21T06:37:48.598Z,16.00
2023-05-21T06:40:20.541Z,16.10
2023-05-21T06:42:47.240Z,16.20
2023-05-21T06:45:18.700Z,16.10
2023-05-21T06:47:45.428Z,16.10
2023-05-21T06:50:12.239Z,16.00
2023-05-21T06:52:41.430Z,16.00
2023-05-21T06:55:08.616Z,16.00
2023-05-21T06:57:35.367Z,16.10
2023-05-21T07:00:02.076Z,16.10
2023-05-21T07:02:28.894Z,16.10
2023-05-21T07:04:58.055Z,16.20
2023-05-21T07:07:24.738Z,16.40
2023-05-21T07:09:51.424Z,16.60
2023-05-21T07:12:18.110Z,16.70
2023-05-21T07:14:44.817Z,16.90
2023-05-21T07:17:13.974Z,17.10
2023-05-21T07:19:43.158Z,17.30
2023-05-21T07:22:09.928Z,17.40
2023-05-21T07:24:39.023Z,17.70
2023-05-21T07:27:17.758Z,17.80
2023-05-21T07:29:51.898Z,17.90
2023-05-21T07:32:18.566Z,18.10
2023-05-21T07:34:45.250Z,18.30
2023-05-21T07:37:12.134Z,18.50
2023-05-21T07:39:41.402Z,18.60
2023-05-21T07:42:08.102Z,18.70
2023-05-21T07:44:37.316Z,18.80
2023-05-21T07:47:04.381Z,18.90
2023-05-21T07:49:31.069Z,18.80
2023-05-21T07:52:00.019Z,18.70
2023-05-21T07:54:26.750Z,18.80
2023-05-21T07:56:58.428Z,18.90
2023-05-21T07:59:25.463Z,18.90
2023-05-21T08:01:54.865Z,18.70
2023-05-21T08:04:21.841Z,18.60
2023-05-21T08:06:51.273Z,18.50
2023-05-21T08:09:20.517Z,18.30
2023-05-21T08:11:51.850Z,18.50
2023-05-21T08:14:20.709Z,18.50
2023-05-21T08:16:47.588Z,18.60
2023-05-21T08:19:16.755Z,18.70
2023-05-21T08:21:48.969Z,18.80
2023-05-21T08:24:17.002Z,18.90
2023-05-21T08:26:49.551Z,18.80
2023-05-21T08:29:16.348Z,19.00
2023-05-21T08:31:43.112Z,19.30
2023-05-21T08:34:12.082Z,19.40
2023-05-21T08:36:43.112Z,19.50
2023-05-21T08:39:13.050Z,19.60
2023-05-21T08:41:41.357Z,19.80
2023-05-21T08:44:12.231Z,20.00
2023-05-21T08:46:41.194Z,20.20
2023-05-21T08:49:12.740Z,20.30
2023-05-21T08:51:41.983Z,20.60
2023-05-21T08:54:16.941Z,20.70
2023-05-21T08:56:47.012Z,21.10
2023-05-21T08:59:15.096Z,21.20
2023-05-21T09:01:42.427Z,21.20
2023-05-21T09:04:20.145Z,21.40
2023-05-21T09:06:47.857Z,21.50
2023-05-21T09:09:33.656Z,21.60
2023-05-21T09:12:00.907Z,21.60
2023-05-21T09:14:28.330Z,21.50
2023-05-21T09:16:59.893Z,21.50
2023-05-21T09:19:30.227Z,21.40
2023-05-21T09:22:03.720Z,21.50
2023-05-21T09:24:36.611Z,21.30
2023-05-21T09:27:09.047Z,21.50
2023-05-21T09:29:36.062Z,21.50
2023-05-21T09:32:09.139Z,21.50
2023-05-21T09:34:38.862Z,21.60
2023-05-21T09:37:19.842Z,21.70
2023-05-21T09:39:56.343Z,22.10
2023-05-21T09:42:23.132Z,22.40
2023-05-21T09:44:49.924Z,22.60
2023-05-21T09:47:20.256Z,22.70
2023-05-21T09:49:49.222Z,22.90
2023-05-21T09:52:26.310Z,22.80
2023-05-21T09:55:02.259Z,22.90
2023-05-21T09:57:29.612Z,23.20
2023-05-21T09:59:58.926Z,23.40
2023-05-21T10:02:28.511Z,23.50
2023-05-21T10:04:57.036Z,23.70
2023-05-21T10:07:27.281Z,23.90
2023-05-21T10:09:58.103Z,24.00
2023-05-21T10:12:32.776Z,24.10
2023-05-21T10:15:04.488Z,24.30
2023-05-21T10:17:33.681Z,24.30
2023-05-21T10:20:01.624Z,24.30
2023-05-21T10:22:31.094Z,24.10
2023-05-21T10:25:01.162Z,24.00
2023-05-21T10:27:33.093Z,23.90
2023-05-21T10:30:02.740Z,23.70
2023-05-21T10:32:31.315Z,23.40
2023-05-21T10:35:00.066Z,23.40
2023-05-21T10:37:28.918Z,23.40
2023-05-21T10:39:56.306Z,23.60
2023-05-21T10:42:31.931Z,23.60
2023-05-21T10:45:26.879Z,23.50
2023-05-21T10:48:15.266Z,23.70
2023-05-21T10:50:57.904Z,24.00
2023-05-21T10:54:02.187Z,24.30
2023-05-21T10:56:50.436Z,24.70
2023-05-21T10:59:40.137Z,25.20
2023-05-21T11:02:07.851Z,25.30
2023-05-21T11:04:39.658Z,25.60
2023-05-21T11:07:08.732Z,25.90
2023-05-21T11:09:35.668Z,26.10
2023-05-21T11:12:04.623Z,26.30
2023-05-21T11:14:42.800Z,26.40
2023-05-21T11:17:11.977Z,26.60
2023-05-21T11:19:47.392Z,26.70
2023-05-21T11:22:24.105Z,26.60
2023-05-21T11:24:52.024Z,26.70
2023-05-21T11:27:33.072Z,26.50
2023-05-21T11:30:10.579Z,26.50
2023-05-21T11:33:01.359Z,26.60
2023-05-21T11:35:28.303Z,26.40
2023-05-21T11:37:54.989Z,26.30
2023-05-21T11:40:26.617Z,26.60
2023-05-21T11:42:57.242Z,27.50
2023-05-21T11:45:31.592Z,28.60
2023-05-21T11:47:58.648Z,29.10
2023-05-21T11:50:25.866Z,29.80
2023-05-21T11:52:55.118Z,30.80
2023-05-21T11:55:24.929Z,31.80
2023-05-21T11:57:54.044Z,32.70
2023-05-21T12:00:21.584Z,33.40
2023-05-21T12:02:53.330Z,34.00
2023-05-21T12:05:20.888Z,34.30
2023-05-21T12:07:50.977Z,34.90
2023-05-21T12:10:25.986Z,34.90
2023-05-21T12:12:56.926Z,34.60
2023-05-21T12:15:28.164Z,35.10
2023-05-21T12:17:55.414Z,35.20
2023-05-21T12:20:26.174Z,34.60
2023-05-21T12:22:53.085Z,33.70
2023-05-21T12:25:22.890Z,33.00
2023-05-21T12:27:52.561Z,33.20
2023-05-21T12:30:22.217Z,33.50
2023-05-21T12:32:49.325Z,33.80
2023-05-21T12:35:25.108Z,34.40
2023-05-21T12:37:52.459Z,35.00
2023-05-21T12:40:22.745Z,35.90
2023-05-21T12:42:52.031Z,36.50
2023-05-21T12:45:22.671Z,37.20
2023-05-21T12:47:50.560Z,37.60
2023-05-21T12:50:22.968Z,38.20
2023-05-21T12:52:51.839Z,38.10
2023-05-21T12:55:18.635Z,38.40
2023-05-21T12:57:45.591Z,38.80
2023-05-21T13:00:15.013Z,39.10
2023-05-21T13:02:45.813Z,39.30
2023-05-21T13:05:17.542Z,39.80
2023-05-21T13:07:46.804Z,40.20
2023-05-21T13:10:16.801Z,40.50
2023-05-21T13:12:46.112Z,40.80
2023-05-21T13:15:12.970Z,40.80
2023-05-21T13:17:41.963Z,40.90
2023-05-21T13:20:27.402Z,41.20
2023-05-21T13:22:57.123Z,41.50
2023-05-21T13:25:30.013Z,42.00
2023-05-21T13:28:04.422Z,42.40
2023-05-21T13:30:33.140Z,42.10
2023-05-21T13:33:00.120Z,41.60
2023-05-21T13:35:27.184Z,40.60
2023-05-21T13:37:54.228Z,39.50
2023-05-21T13:40:22.010Z,38.50
2023-05-21T13:42:51.908Z,37.40
2023-05-21T13:45:19.972Z,37.30
2023-05-21T13:47:50.057Z,37.70
2023-05-21T13:50:17.065Z,38.10
2023-05-21T13:52:43.898Z,38.50
2023-05-21T13:55:10.725Z,38.70
2023-05-21T13:57:40.609Z,38.80
2023-05-21T14:00:12.629Z,38.40
2023-05-21T14:02:43.947Z,38.60
2023-05-21T14:05:11.691Z,38.80
2023-05-21T14:07:39.821Z,38.40
2023-05-21T14:10:09.237Z,37.10
2023-05-21T14:12:38.737Z,36.00
2023-05-21T14:15:06.596Z,36.10
2023-05-21T14:17:35.952Z,36.70
2023-05-21T14:20:02.954Z,38.10
2023-05-21T14:22:29.641Z,39.50
2023-05-21T14:24:56.420Z,40.70
2023-05-21T14:27:23.135Z,41.50
2023-05-21T14:29:52.029Z,41.50
2023-05-21T14:32:19.245Z,42.10
2023-05-21T14:34:45.993Z,42.30
2023-05-21T14:37:14.942Z,42.20
2023-05-21T14:39:44.094Z,42.60
2023-05-21T14:42:10.899Z,43.00
2023-05-21T14:44:39.905Z,43.50
2023-05-21T14:47:06.579Z,43.70
2023-05-21T14:49:37.983Z,43.60
2023-05-21T14:52:05.039Z,43.70
2023-05-21T14:54:34.000Z,43.40
2023-05-21T14:57:02.988Z,43.40
2023-05-21T14:59:31.927Z,43.60
2023-05-21T15:01:58.801Z,43.60
2023-05-21T15:04:27.808Z,44.00
2023-05-21T15:06:59.169Z,44.20
2023-05-21T15:09:28.036Z,44.30
2023-05-21T15:11:56.995Z,44.00
2023-05-21T15:14:23.702Z,43.40
2023-05-21T15:16:50.512Z,43.00
2023-05-21T15:19:17.603Z,42.90
2023-05-21T15:21:44.399Z,42.40
2023-05-21T15:24:11.523Z,42.40
2023-05-21T15:26:38.251Z,42.10
2023-05-21T15:29:07.427Z,42.40
2023-05-21T15:31:34.177Z,42.80
2023-05-21T15:34:03.363Z,43.00
2023-05-21T15:36:30.479Z,42.90
2023-05-21T15:38:57.168Z,43.00
2023-05-21T15:41:23.953Z,42.90
2023-05-21T15:43:53.020Z,43.20
2023-05-21T15:46:22.069Z,42.70
2023-05-21T15:48:53.512Z,42.40
2023-05-21T15:51:20.298Z,41.90
2023-05-21T15:53:47.001Z,41.50
2023-05-21T15:56:22.021Z,41.30
2023-05-21T15:58:49.945Z,41.30
2023-05-21T16:01:16.836Z,41.10
2023-05-21T16:03:46.098Z,40.50
2023-05-21T16:06:15.159Z,39.30
2023-05-21T16:08:44.359Z,38.20
2023-05-21T16:11:13.269Z,37.20
2023-05-21T16:13:40.067Z,36.50
2023-05-21T16:16:07.057Z,35.80
2023-05-21T16:18:36.213Z,35.30
2023-05-21T16:21:03.097Z,35.00
2023-05-21T16:23:29.825Z,35.10
2023-05-21T16:25:56.583Z,34.90
2023-05-21T16:28:24.362Z,34.50
2023-05-21T16:30:51.823Z,34.10
2023-05-21T16:33:21.644Z,33.40
2023-05-21T16:35:48.359Z,32.90
2023-05-21T16:38:19.439Z,32.40
2023-05-21T16:40:47.107Z,32.00
2023-05-21T16:43:16.190Z,31.90
2023-05-21T16:45:48.814Z,32.10
2023-05-21T16:48:17.955Z,32.30
2023-05-21T16:50:47.069Z,32.20
2023-05-21T16:53:13.849Z,32.10
2023-05-21T16:55:43.257Z,31.90
2023-05-21T16:58:10.898Z,31.70
2023-05-21T17:00:37.672Z,31.40
2023-05-21T17:03:09.871Z,30.90
2023-05-21T17:05:36.951Z,30.20
2023-05-21T17:08:04.111Z,29.50
2023-05-21T17:10:36.196Z,28.90
2023-05-21T17:13:18.264Z,28.30
2023-05-21T17:15:47.994Z,27.80
2023-05-21T17:18:14.708Z,27.30
2023-05-21T17:20:44.475Z,27.00
2023-05-21T17:23:13.838Z,26.60
2023-05-21T17:25:43.170Z,26.40
2023-05-21T17:28:10.002Z,26.10
2023-05-21T17:30:36.695Z,25.90
2023-05-21T17:33:03.874Z,25.70
2023-05-21T17:35:30.824Z,25.50
2023-05-21T17:37:57.630Z,25.40
2023-05-21T17:40:25.022Z,25.30
2023-05-21T17:42:54.580Z,25.10
2023-05-21T17:45:21.355Z,25.00
2023-05-21T17:47:48.191Z,24.80
2023-05-21T17:50:15.489Z,24.70
2023-05-21T17:52:42.184Z,24.60
2023-05-21T17:55:09.135Z,24.50
2023-05-21T17:57:36.193Z,24.40
2023-05-21T18:00:05.082Z,24.20
2023-05-21T18:02:31.933Z,24.10
2023-05-21T18:04:58.685Z,23.90
2023-05-21T18:07:25.625Z,23.70
2023-05-21T18:09:52.405Z,23.50
2023-05-21T18:12:19.152Z,23.40
2023-05-21T18:14:46.033Z,23.30
2023-05-21T18:17:13.047Z,23.20
2023-05-21T18:19:39.775Z,23.10
2023-05-21T18:22:06.760Z,22.90
2023-05-21T18:24:33.822Z,22.90
2023-05-21T18:27:00.580Z,22.80
2023-05-21T18:29:27.290Z,22.70
2023-05-21T18:31:56.596Z,22.50
2023-05-21T18:34:23.342Z,22.30
2023-05-21T18:36:54.422Z,22.20
2023-05-21T18:39:24.812Z,22.00
2023-05-21T18:42:11.447Z,21.80
2023-05-21T18:44:45.900Z,21.70
2023-05-21T18:47:13.591Z,21.50
2023-05-21T18:49:40.312Z,21.40
2023-05-21T18:52:09.629Z,21.30
2023-05-21T18:54:38.852Z,21.10
2023-05-21T18:57:10.494Z,21.10
2023-05-21T18:59:40.681Z,21.00
2023-05-21T19:02:10.125Z,20.80
2023-05-21T19:04:39.300Z,20.80
2023-05-21T19:07:05.994Z,20.80
2023-05-21T19:09:32.769Z,20.80
2023-05-21T19:12:00.918Z,20.90
2023-05-21T19:14:27.620Z,20.90
2023-05-21T19:16:54.488Z,20.90
2023-05-21T19:19:21.386Z,20.90
2023-05-21T19:21:50.634Z,20.90
2023-05-21T19:24:17.393Z,20.90
2023-05-21T19:26:44.122Z,20.90
2023-05-21T19:29:13.282Z,20.90
2023-05-21T19:31:42.728Z,20.80
2023-05-21T19:34:11.728Z,20.70
2023-05-21T19:36:52.155Z,20.70
2023-05-21T19:39:20.318Z,20.60
2023-05-21T19:41:52.745Z,20.60
2023-05-21T19:44:19.461Z,20.60
2023-05-21T19:46:46.159Z,20.50
2023-05-21T19:49:14.495Z,20.50
2023-05-21T19:51:43.861Z,20.50
2023-05-21T19:54:10.574Z,20.40
2023-05-21T19:56:37.273Z,20.30
2023-05-21T19:59:06.528Z,20.30
2023-05-21T20:01:39.954Z,20.20
2023-05-21T20:04:12.589Z,20.20
2023-05-21T20:06:39.577Z,20.20
2023-05-21T20:09:07.235Z,20.10
2023-05-21T20:11:34.520Z,20.00
2023-05-21T20:14:02.227Z,19.90
2023-05-21T20:16:31.354Z,19.80
2023-05-21T20:19:01.615Z,19.80
2023-05-21T20:21:30.279Z,19.70
2023-05-21T20:23:56.980Z,19.70
2023-05-21T20:26:25.987Z,19.70
2023-05-21T20:28:55.136Z,19.60
2023-05-21T20:31:25.270Z,19.60
2023-05-21T20:33:54.424Z,19.60
2023-05-21T20:36:21.273Z,19.60
2023-05-21T20:38:48.262Z,19.50
2023-05-21T20:41:14.981Z,19.60
2023-05-21T20:43:46.322Z,19.50
2023-05-21T20:46:13.504Z,19.50
2023-05-21T20:48:41.692Z,19.50
2023-05-21T20:51:11.096Z,19.50
2023-05-21T20:53:40.062Z,19.50
2023-05-21T20:56:11.561Z,19.50
2023-05-21T20:58:39.833Z,19.50
2023-05-21T21:01:10.575Z,19.50
2023-05-21T21:03:37.517Z,19.40
2023-05-21T21:06:06.371Z,19.40
2023-05-21T21:08:35.300Z,19.40
2023-05-21T21:11:04.249Z,19.30
2023-05-21T21:13:30.951Z,19.30
2023-05-21T21:15:57.692Z,19.30
2023-05-21T21:18:24.388Z,19.30
2023-05-21T21:20:53.364Z,19.30
2023-05-21T21:23:25.807Z,19.30
2023-05-21T21:25:52.495Z,19.30
2023-05-21T21:28:23.540Z,19.30
2023-05-21T21:30:50.308Z,19.30
2023-05-21T21:33:19.311Z,19.30
2023-05-21T21:35:46.530Z,19.20
2023-05-21T21:38:15.845Z,19.20
2023-05-21T21:40:42.531Z,19.10
2023-05-21T21:43:09.320Z,19.10
2023-05-21T21:45:38.516Z,19.00
2023-05-21T21:48:05.817Z,19.00
2023-05-21T21:50:32.586Z,19.00
2023-05-21T21:52:59.956Z,19.00
2023-05-21T21:55:26.922Z,19.00
2023-05-21T21:57:53.655Z,18.90
2023-05-21T22:00:20.966Z,18.90
2023-05-21T22:02:47.727Z,18.90
2023-05-21T22:05:19.263Z,18.80
2023-05-21T22:07:46.816Z,18.80
2023-05-21T22:10:19.662Z,18.80
2023-05-21T22:12:46.826Z,18.70
2023-05-21T22:15:28.398Z,18.70
2023-05-21T22:17:55.623Z,18.70
2023-05-21T22:20:22.616Z,18.70
2023-05-21T22:22:53.553Z,18.70
2023-05-21T22:25:23.828Z,18.60
2023-05-21T22:27:51.149Z,18.60
2023-05-21T22:30:19.354Z,18.60
2023-05-21T22:32:49.476Z,18.60
2023-05-21T22:35:16.244Z,18.50
2023-05-21T22:37:45.463Z,18.50
2023-05-21T22:40:12.444Z,18.50
2023-05-21T22:42:39.344Z,18.40
2023-05-21T22:45:11.797Z,18.40
2023-05-21T22:47:40.695Z,18.30
2023-05-21T22:50:10.672Z,18.30
2023-05-21T22:52:43.468Z,18.30
2023-05-21T22:55:11.558Z,18.30
2023-05-21T22:57:40.510Z,18.20
2023-05-21T23:00:10.674Z,18.20
2023-05-21T23:02:39.954Z,18.20
2023-05-21T23:05:06.869Z,18.10
2023-05-21T23:07:35.855Z,18.10
2023-05-21T23:10:02.791Z,18.10
2023-05-21T23:12:34.169Z,18.00
2023-05-21T23:15:07.238Z,18.00
2023-05-21T23:17:34.018Z,18.00
2023-05-21T23:20:00.814Z,17.90
2023-05-21T23:22:27.508Z,17.90
2023-05-21T23:24:56.440Z,17.90
2023-05-21T23:27:23.186Z,17.80
2023-05-21T23:29:52.074Z,17.80
2023-05-21T23:32:23.536Z,17.70
2023-05-21T23:34:50.554Z,17.70
2023-05-21T23:37:17.275Z,17.60
2023-05-21T23:39:47.922Z,17.60
2023-05-21T23:42:17.323Z,17.60
2023-05-21T23:44:44.227Z,17.50
2023-05-21T23:47:10.978Z,17.40
2023-05-21T23:49:37.755Z,17.40
2023-05-21T23:52:07.307Z,17.40
2023-05-21T23:54:34.047Z,17.30
2023-05-21T23:57:03.051Z,17.30
2023-05-21T23:59:29.869Z,17.40
